Time;durP1;ratioP1;P1;durP2;ratioP2;P2;SDS_P1;SDS_P2;PMS_P1;PMS_P2;Temp;Humidity;BMP_temperature;BMP_pressure;BME280_temperature;BME280_humidity;BME280_pressure;Samples;Min_cycle;Max_cycle;Signal;HPM_P1;HPM_P2
2023/09/10 00:00:18;;;;;;;18.20;13.13;;;;;;;31.60;43.44;101782.84;5051649;28;20135;-71
2023/09/10 00:02:44;;;;;;;20.58;13.68;;;;;;;31.29;43.86;101790.81;5069690;28;20038;-71
2023/09/10 00:05:09;;;;;;;18.13;12.50;;;;;;;31.59;43.23;101776.59;5060378;28;20043;-71
2023/09/10 00:07:35;;;;;;;20.10;12.77;;;;;;;31.78;42.94;101785.84;5068692;28;20111;-71
2023/09/10 00:10:00;;;;;;;18.95;11.80;;;;;;;31.62;43.11;101770.09;5072494;28;20027;-71
2023/09/10 00:12:26;;;;;;;20.90;13.02;;;;;;;31.57;43.04;101778.56;5073826;28;20484;-71
2023/09/10 00:14:51;;;;;;;20.38;12.10;;;;;;;31.57;43.56;101783.09;5070350;28;20036;-71
2023/09/10 00:17:16;;;;;;;16.52;12.10;;;;;;;31.66;43.17;101778.78;5088610;28;20495;-70
2023/09/10 00:19:42;;;;;;;16.75;12.23;;;;;;;31.74;43.00;101784.41;5089480;28;20035;-71
2023/09/10 00:22:07;;;;;;;20.27;13.88;;;;;;;31.56;43.35;101775.97;5050492;28;20461;-72
2023/09/10 00:24:33;;;;;;;18.85;13.38;;;;;;;31.34;43.97;101782.31;5051368;28;20039;-71
2023/09/10 00:26:58;;;;;;;16.00;11.98;;;;;;;30.98;44.44;101782.53;5051777;28;20024;-71
2023/09/10 00:29:23;;;;;;;22.48;12.02;;;;;;;31.37;43.94;101779.38;5049716;28;20338;-71
2023/09/10 00:31:49;;;;;;;17.25;12.38;;;;;;;31.37;43.76;101776.69;5088535;28;20060;-71
2023/09/10 00:34:14;;;;;;;20.00;14.05;;;;;;;31.18;43.77;101772.81;5070241;28;20077;-72
2023/09/10 00:36:40;;;;;;;18.15;11.95;;;;;;;31.52;43.46;101764.56;5072607;28;20043;-71
2023/09/10 00:39:05;;;;;;;18.20;12.70;;;;;;;31.59;43.07;101776.59;5091851;28;20073;-72
2023/09/10 00:41:31;;;;;;;18.27;13.05;;;;;;;31.54;42.92;101769.84;5062986;28;20072;-71
2023/09/10 00:43:56;;;;;;;23.38;12.82;;;;;;;31.56;43.05;101771.44;5054909;28;20507;-71
2023/09/10 00:46:22;;;;;;;16.40;12.20;;;;;;;31.39;43.41;101763.91;5079021;28;20033;-71
2023/09/10 00:48:47;;;;;;;18.20;12.23;;;;;;;31.24;43.69;101764.22;5071379;28;20036;-71
2023/09/10 00:51:13;;;;;;;17.15;12.35;;;;;;;31.09;43.98;101763.66;5073040;28;20020;-71
2023/09/10 00:53:41;;;;;;;19.45;13.23;;;;;;;31.13;43.98;101769.63;5074302;28;20544;-71
2023/09/10 00:56:07;;;;;;;19.75;13.38;;;;;;;31.09;43.82;101778.97;5072645;28;20488;-71
2023/09/10 00:58:33;;;;;;;18.10;12.73;;;;;;;30.91;44.32;101757.91;5082115;28;20041;-71
2023/09/10 01:00:59;;;;;;;20.10;13.63;;;;;;;30.92;44.42;101767.69;5052322;28;20022;-71
2023/09/10 01:03:27;;;;;;;19.42;12.77;;;;;;;31.06;44.02;101763.03;5033578;28;20021;-71
2023/09/10 01:05:52;;;;;;;18.10;12.30;;;;;;;31.19;43.62;101762.84;5066897;28;20058;-71
2023/09/10 01:08:18;;;;;;;18.80;12.65;;;;;;;31.07;44.30;101765.59;5035524;28;20096;-71
2023/09/10 01:11:02;;;;;;;19.95;13.18;;;;;;;31.21;43.37;101769.00;5037546;28;20025;-71
2023/09/10 01:13:42;;;;;;;20.65;14.30;;;;;;;31.16;43.67;101769.41;5071071;28;20511;-71
2023/09/10 01:16:17;;;;;;;18.20;12.63;;;;;;;31.09;43.69;101771.75;5067117;28;20107;-71
2023/09/10 01:18:49;;;;;;;22.25;13.82;;;;;;;30.85;44.58;101761.09;5044729;28;20032;-71
2023/09/10 01:21:17;;;;;;;18.13;12.98;;;;;;;30.78;44.31;101770.69;5042113;28;20025;-70
2023/09/10 01:23:56;;;;;;;19.63;13.60;;;;;;;30.92;44.15;101766.84;5033485;28;20068;-70
2023/09/10 01:26:22;;;;;;;22.45;12.90;;;;;;;30.86;44.46;101768.22;5051312;28;20392;-71
2023/09/10 01:28:48;;;;;;;21.20;12.63;;;;;;;30.95;43.94;101772.88;5052028;28;20031;-70
2023/09/10 01:31:13;;;;;;;17.67;13.25;;;;;;;31.13;43.39;101769.63;5049852;28;20103;-71
2023/09/10 01:33:46;;;;;;;16.65;12.50;;;;;;;31.18;43.65;101770.13;5033870;28;20389;-71
2023/09/10 01:36:16;;;;;;;;;;;;;;;30.97;43.84;101770.03;5040197;28;20089;-70
2023/09/10 01:38:51;;;;;;;26.05;13.65;;;;;;;30.95;44.62;101778.25;5068035;28;19920;-71
2023/09/10 01:41:18;;;;;;;20.73;14.00;;;;;;;30.99;43.64;101772.59;5033827;28;20621;-71
2023/09/10 01:43:44;;;;;;;15.55;12.18;;;;;;;30.69;44.90;101782.22;5050367;28;20476;-72
2023/09/10 01:46:13;;;;;;;19.92;14.07;;;;;;;30.68;44.38;101780.50;5047723;28;20052;-71
2023/09/10 01:48:39;;;;;;;21.20;13.80;;;;;;;30.97;44.40;101772.72;5039235;28;20024;-71
2023/09/10 01:51:04;;;;;;;18.13;12.38;;;;;;;30.99;43.74;101781.53;5033642;28;20564;-70
2023/09/10 01:53:30;;;;;;;19.48;13.32;;;;;;;30.87;44.27;101780.72;5051773;28;20422;-70
2023/09/10 01:55:55;;;;;;;18.27;13.40;;;;;;;30.89;44.56;101784.16;5034062;28;20029;-71
2023/09/10 01:58:21;;;;;;;23.67;13.90;;;;;;;30.67;44.79;101778.78;5033079;28;20139;-71
2023/09/10 02:00:47;;;;;;;19.58;14.13;;;;;;;30.98;43.76;101774.41;5050640;28;20473;-71
2023/09/10 02:03:12;;;;;;;22.88;14.48;;;;;;;30.93;43.71;101779.38;5039847;28;20484;-70
2023/09/10 02:05:38;;;;;;;19.35;13.63;;;;;;;30.91;43.54;101782.19;5050657;28;20036;-70
2023/09/10 02:08:04;;;;;;;21.33;14.88;;;;;;;30.89;43.97;101773.34;5032360;28;20032;-71
2023/09/10 02:10:32;;;;;;;23.35;15.50;;;;;;;30.59;44.53;101788.34;5049678;28;20024;-71
2023/09/10 02:12:57;;;;;;;21.08;13.70;;;;;;;30.42;44.59;101786.13;5032219;28;20487;-70
2023/09/10 02:15:23;;;;;;;21.63;14.48;;;;;;;30.72;44.26;101781.97;5037800;28;20029;-71
2023/09/10 02:17:48;;;;;;;19.85;13.98;;;;;;;30.74;44.58;101793.50;5042523;28;20029;-71
2023/09/10 02:20:14;;;;;;;27.00;14.98;;;;;;;30.59;44.67;101792.88;5044969;28;20037;-71
2023/09/10 02:22:40;;;;;;;20.48;13.52;;;;;;;30.61;44.24;101783.69;5034953;28;20035;-71
2023/09/10 02:25:07;;;;;;;21.40;14.23;;;;;;;30.47;44.54;101794.72;5043631;28;20063;-71
2023/09/10 02:27:34;;;;;;;22.80;14.77;;;;;;;30.33;45.12;101786.84;5049285;28;20024;-71
2023/09/10 02:30:00;;;;;;;23.48;13.57;;;;;;;30.59;44.86;101785.66;5052432;28;20074;-71
2023/09/10 02:32:25;;;;;;;21.85;14.40;;;;;;;30.79;44.30;101789.44;5069980;28;20028;-71
2023/09/10 02:34:54;;;;;;;21.33;14.60;;;;;;;30.74;44.41;101788.09;5038687;28;20025;-71
2023/09/10 02:37:19;;;;;;;17.98;13.52;;;;;;;30.70;44.43;101781.25;5049801;28;20079;-70
2023/09/10 02:39:45;;;;;;;21.60;14.02;;;;;;;30.51;44.47;101784.56;5048750;28;20037;-71
2023/09/10 02:42:13;;;;;;;20.77;15.15;;;;;;;30.72;44.46;101782.84;5031873;28;20025;-70
2023/09/10 02:44:39;;;;;;;19.90;13.50;;;;;;;30.66;44.68;101771.69;5039923;28;20024;-71
2023/09/10 02:47:04;;;;;;;21.58;15.38;;;;;;;31.09;43.23;101778.97;5040753;28;20025;-71
2023/09/10 02:49:30;;;;;;;21.92;13.40;;;;;;;30.66;43.91;101777.06;5032033;28;20468;-70
2023/09/10 02:51:55;;;;;;;20.45;14.48;;;;;;;30.79;44.39;101773.25;5050278;28;20473;-71
2023/09/10 02:54:21;;;;;;;20.52;14.25;;;;;;;30.70;43.92;101775.84;5036582;28;20062;-71
2023/09/10 02:56:47;;;;;;;26.77;16.35;;;;;;;30.18;45.07;101767.34;5041980;28;20024;-71
2023/09/10 02:59:25;;;;;;;22.20;15.27;;;;;;;30.67;43.92;101770.72;5041229;28;20044;-71
2023/09/10 03:01:51;;;;;;;27.75;14.70;;;;;;;30.37;44.64;101772.16;5069960;28;20024;-71
2023/09/10 03:04:17;;;;;;;24.08;15.05;;;;;;;30.20;45.43;101766.25;5070528;28;20055;-71
2023/09/10 03:06:44;;;;;;;23.30;15.77;;;;;;;30.45;44.47;101772.44;5062506;28;20447;-70
2023/09/10 03:09:10;;;;;;;22.10;15.43;;;;;;;30.64;44.25;101769.09;5070924;28;20365;-71
2023/09/10 03:11:37;;;;;;;23.27;15.73;;;;;;;30.68;44.12;101775.09;5072325;28;20028;-72
2023/09/10 03:14:03;;;;;;;23.73;15.40;;;;;;;30.49;44.30;101770.31;5072429;28;20027;-71
2023/09/10 03:16:29;;;;;;;26.60;15.10;;;;;;;30.77;44.14;101764.41;5088502;28;20038;-70
2023/09/10 03:18:54;;;;;;;27.50;16.23;;;;;;;30.08;45.21;101773.47;5087435;28;20031;-71
2023/09/10 03:21:21;;;;;;;20.80;14.48;;;;;;;30.34;44.99;101767.00;5067142;28;20029;-72
2023/09/10 03:23:46;;;;;;;24.15;15.23;;;;;;;30.42;44.24;101768.09;5069517;28;20032;-72
2023/09/10 03:26:12;;;;;;;26.73;15.20;;;;;;;30.77;43.80;101771.66;5051136;28;20512;-71
2023/09/10 03:28:38;;;;;;;24.90;16.60;;;;;;;30.01;45.24;101760.63;5085097;28;20028;-71
2023/09/10 03:31:03;;;;;;;25.58;16.67;;;;;;;30.32;44.64;101766.25;5088144;28;20024;-72
2023/09/10 03:33:29;;;;;;;24.40;17.38;;;;;;;30.27;45.09;101761.25;5051102;28;20020;-72
2023/09/10 03:35:54;;;;;;;29.17;17.10;;;;;;;29.85;45.72;101766.31;5069592;28;20032;-72
2023/09/10 03:38:19;;;;;;;26.70;16.60;;;;;;;30.10;45.20;101759.88;5069024;28;20031;-72
2023/09/10 03:40:45;;;;;;;28.48;18.73;;;;;;;30.29;44.83;101748.47;5051181;28;20097;-72
2023/09/10 03:43:11;;;;;;;28.38;18.05;;;;;;;29.88;45.82;101750.78;5051990;28;20031;-72
2023/09/10 03:45:36;;;;;;;29.08;17.85;;;;;;;29.66;46.56;101761.47;5068864;28;20037;-72
2023/09/10 03:48:02;;;;;;;31.00;18.63;;;;;;;29.49;47.00;101758.22;5067698;28;20024;-71
2023/09/10 03:50:27;;;;;;;26.70;18.23;;;;;;;29.54;47.13;101747.09;5089598;28;20028;-72
2023/09/10 03:52:53;;;;;;;29.15;18.75;;;;;;;29.66;46.48;101751.53;5059684;28;20017;-72
2023/09/10 03:55:18;;;;;;;29.33;19.67;;;;;;;29.54;46.60;101753.34;5051694;28;20028;-72
2023/09/10 03:57:44;;;;;;;33.78;20.70;;;;;;;29.77;46.36;101739.94;5052150;28;20074;-72
2023/09/10 04:00:13;;;;;;;33.85;19.27;;;;;;;29.84;46.10;101749.28;5050521;28;20044;-72
2023/09/10 04:02:38;;;;;;;30.58;19.67;;;;;;;29.83;46.29;101757.47;5050591;28;20024;-72
2023/09/10 04:05:05;;;;;;;28.50;19.80;;;;;;;29.39;46.94;101750.00;5051206;28;20039;-72
2023/09/10 04:07:31;;;;;;;32.95;19.13;;;;;;;29.85;46.54;101747.47;5068541;28;20356;-71
2023/09/10 04:09:57;;;;;;;31.17;20.80;;;;;;;29.84;46.56;101754.66;5052194;28;20111;-72
2023/09/10 04:12:22;;;;;;;30.38;19.55;;;;;;;29.73;46.80;101754.63;5054601;28;20028;-71
2023/09/10 04:14:48;;;;;;;33.75;20.05;;;;;;;29.88;46.30;101755.31;5065035;28;20032;-72
2023/09/10 04:17:17;;;;;;;32.83;20.33;;;;;;;29.99;46.19;101751.78;5065716;28;20035;-71
2023/09/10 04:19:43;;;;;;;33.33;20.95;;;;;;;30.11;45.61;101758.91;5072783;28;20051;-72
2023/09/10 04:22:09;;;;;;;31.70;19.73;;;;;;;29.55;47.00;101757.78;5088243;28;20119;-72
2023/09/10 04:24:34;;;;;;;30.33;20.27;;;;;;;29.61;47.00;101759.13;5074310;28;20111;-72
2023/09/10 04:27:00;;;;;;;31.10;19.63;;;;;;;29.82;46.33;101748.53;5092839;28;20123;-71
2023/09/10 04:29:26;;;;;;;35.78;20.75;;;;;;;29.69;46.65;101751.31;5068476;28;20036;-71
2023/09/10 04:31:51;;;;;;;31.00;20.45;;;;;;;29.20;48.26;101742.41;5057466;28;20039;-72
2023/09/10 04:34:17;;;;;;;31.77;19.13;;;;;;;29.32;47.79;101740.69;5074303;28;20031;-72
2023/09/10 04:36:42;;;;;;;31.92;20.00;;;;;;;29.69;46.71;101743.25;5075241;28;20409;-72
2023/09/10 04:39:08;;;;;;;34.80;21.42;;;;;;;29.55;46.76;101744.31;5070079;28;20425;-72
2023/09/10 04:41:35;;;;;;;34.05;19.88;;;;;;;30.14;46.03;101749.72;5073675;28;20106;-72
2023/09/10 04:44:01;;;;;;;31.25;20.30;;;;;;;29.50;47.28;101749.19;5081968;28;20032;-71
2023/09/10 04:46:27;;;;;;;34.72;20.75;;;;;;;29.99;45.97;101746.38;5074504;28;20024;-71
2023/09/10 04:48:53;;;;;;;31.23;20.15;;;;;;;30.13;46.05;101743.47;5073906;28;20075;-71
2023/09/10 04:51:18;;;;;;;34.10;21.30;;;;;;;29.89;45.84;101747.09;5076052;28;20107;-72
2023/09/10 04:53:44;;;;;;;35.88;21.83;;;;;;;29.57;47.11;101753.13;5082350;28;20395;-72
2023/09/10 04:56:12;;;;;;;34.88;22.33;;;;;;;29.06;48.17;101738.06;5054268;28;20025;-72
2023/09/10 04:58:38;;;;;;;31.45;21.13;;;;;;;29.79;46.97;101756.84;5066957;28;20538;-71
2023/09/10 05:01:03;;;;;;;36.50;20.42;;;;;;;29.89;46.29;101763.25;5054233;28;20056;-71
2023/09/10 05:03:28;;;;;;;35.45;22.23;;;;;;;29.72;46.73;101755.63;5060039;28;20063;-71
2023/09/10 05:05:58;;;;;;;33.17;21.55;;;;;;;30.03;46.32;101764.03;5054272;28;20041;-71
2023/09/10 05:08:23;;;;;;;39.22;22.08;;;;;;;29.31;48.27;101762.34;5054479;28;20031;-71
2023/09/10 05:10:49;;;;;;;35.38;21.52;;;;;;;29.55;47.00;101760.47;5053838;28;20032;-71
2023/09/10 05:13:14;;;;;;;39.42;22.13;;;;;;;29.89;46.63;101763.25;5071892;28;20070;-71
2023/09/10 05:15:40;;;;;;;41.97;21.90;;;;;;;29.11;48.25;101756.56;5071911;28;20071;-71
2023/09/10 05:18:05;;;;;;;31.38;21.50;;;;;;;29.11;48.21;101762.81;5086395;28;20028;-72
2023/09/10 05:20:31;;;;;;;38.35;23.10;;;;;;;29.34;48.30;101756.72;5075114;28;20066;-70
2023/09/10 05:22:57;;;;;;;37.38;22.20;;;;;;;29.44;47.89;101752.31;5052678;28;20081;-71
2023/09/10 05:25:23;;;;;;;36.70;22.88;;;;;;;29.64;46.90;101755.34;5071986;28;20024;-71
2023/09/10 05:27:48;;;;;;;37.60;22.83;;;;;;;28.87;48.83;101757.41;5072158;28;20032;-72
2023/09/10 05:30:14;;;;;;;36.78;22.73;;;;;;;28.91;49.18;101760.75;5053383;28;20116;-71
2023/09/10 05:32:39;;;;;;;36.15;23.02;;;;;;;29.11;48.48;101751.16;5071999;28;20122;-71
2023/09/10 05:35:05;;;;;;;37.90;22.40;;;;;;;29.34;48.26;101745.94;5073380;28;20063;-71
2023/09/10 05:37:30;;;;;;;37.72;23.05;;;;;;;29.86;46.80;101750.03;5056346;28;20839;-71
2023/09/10 05:39:56;;;;;;;38.47;22.60;;;;;;;29.58;47.36;101754.84;5074101;28;20024;-71
2023/09/10 05:42:21;;;;;;;38.88;24.65;;;;;;;29.41;48.02;101752.56;5073556;28;20035;-71
2023/09/10 05:44:51;;;;;;;38.28;23.00;;;;;;;29.16;49.22;101754.38;5060089;28;20543;-71
2023/09/10 05:47:19;;;;;;;39.38;24.45;;;;;;;29.33;48.72;101754.97;5065321;28;20035;-71
2023/09/10 05:49:46;;;;;;;38.03;23.33;;;;;;;28.86;49.77;101758.38;5071040;28;20077;-70
2023/09/10 05:52:11;;;;;;;37.60;23.40;;;;;;;28.24;51.43;101757.38;5055136;28;20032;-71
2023/09/10 05:54:37;;;;;;;35.90;22.35;;;;;;;29.47;48.13;101762.00;5072914;28;20035;-71
2023/09/10 05:57:03;;;;;;;37.65;24.02;;;;;;;29.32;48.76;101761.34;5090565;28;20030;-70
2023/09/10 05:59:28;;;;;;;39.63;24.48;;;;;;;29.51;48.18;101764.38;5072292;28;20055;-71
2023/09/10 06:01:53;;;;;;;37.58;23.85;;;;;;;29.07;49.93;101760.44;5087578;28;20396;-71
2023/09/10 06:04:19;;;;;;;34.90;21.73;;;;;;;29.37;49.13;101754.63;5073249;28;20486;-71
2023/09/10 06:06:44;;;;;;;35.22;22.73;;;;;;;29.41;49.14;101768.72;5066371;28;20057;-71
2023/09/10 06:09:10;;;;;;;37.60;23.40;;;;;;;29.90;47.65;101769.53;5058871;28;20032;-71
2023/09/10 06:11:36;;;;;;;38.40;22.60;;;;;;;29.16;48.88;101765.16;5052846;28;20551;-70
2023/09/10 06:14:01;;;;;;;37.38;23.52;;;;;;;29.24;49.59;101778.94;5053659;28;20151;-71
2023/09/10 06:16:27;;;;;;;42.30;23.70;;;;;;;29.43;48.64;101783.78;5052930;28;20461;-71
2023/09/10 06:18:52;;;;;;;39.13;23.55;;;;;;;29.60;48.62;101778.97;5054278;28;20499;-71
2023/09/10 06:21:17;;;;;;;43.00;24.75;;;;;;;29.98;47.83;101774.31;5063514;28;20035;-71
2023/09/10 06:23:43;;;;;;;36.67;22.75;;;;;;;29.14;49.93;101777.88;5053330;28;20058;-71
2023/09/10 06:26:08;;;;;;;38.90;24.77;;;;;;;29.29;50.08;101781.25;5088595;28;20059;-71
2023/09/10 06:28:34;;;;;;;41.10;23.55;;;;;;;30.11;47.33;101783.16;5063875;28;20120;-71
2023/09/10 06:30:59;;;;;;;43.63;25.23;;;;;;;29.06;50.08;101788.34;5073271;28;20077;-71
2023/09/10 06:33:25;;;;;;;43.25;23.77;;;;;;;29.56;49.22;101782.84;5056035;28;20028;-71
2023/09/10 06:35:51;;;;;;;37.22;23.38;;;;;;;29.74;48.77;101786.81;5071253;28;20039;-70
2023/09/10 06:38:16;;;;;;;42.38;24.63;;;;;;;29.88;48.31;101791.22;5051989;28;20063;-71
2023/09/10 06:40:42;;;;;;;39.25;24.02;;;;;;;29.69;49.08;101793.53;5051628;28;20020;-71
2023/09/10 06:43:09;;;;;;;37.83;23.70;;;;;;;30.42;47.55;101796.91;5086276;28;20060;-70
2023/09/10 06:45:36;;;;;;;41.72;24.00;;;;;;;30.76;46.22;101802.31;5071328;28;20032;-71
2023/09/10 06:48:02;;;;;;;38.78;24.80;;;;;;;29.93;48.35;101797.06;5090512;28;20032;-71
2023/09/10 06:50:27;;;;;;;38.85;23.95;;;;;;;30.09;48.40;101801.28;5065684;28;20050;-71
2023/09/10 06:52:52;;;;;;;38.03;23.20;;;;;;;30.97;45.88;101799.72;5060076;28;20030;-71
2023/09/10 06:55:18;;;;;;;43.35;23.02;;;;;;;30.74;46.59;101807.00;5071660;28;20487;-71
2023/09/10 06:57:43;;;;;;;37.67;23.63;;;;;;;30.38;47.39;101800.84;5058294;28;20031;-71
2023/09/10 07:00:09;;;;;;;39.85;24.50;;;;;;;30.96;46.34;101800.69;5070662;28;20056;-71
2023/09/10 07:02:37;;;;;;;42.70;23.67;;;;;;;30.47;47.66;101805.50;5047488;28;20051;-71
2023/09/10 07:05:03;;;;;;;36.50;23.23;;;;;;;30.83;46.97;101806.25;5049127;28;20029;-71
2023/09/10 07:07:28;;;;;;;38.25;24.17;;;;;;;30.11;48.11;101800.16;5056892;28;20037;-71
2023/09/10 07:09:54;;;;;;;44.88;24.95;;;;;;;30.91;46.09;101801.09;5045454;28;20044;-71
2023/09/10 07:12:19;;;;;;;41.75;23.25;;;;;;;31.13;46.24;101791.22;5050762;28;20036;-71
2023/09/10 07:14:45;;;;;;;43.08;24.90;;;;;;;31.36;45.43;101791.16;5069669;28;20028;-71
2023/09/10 07:17:11;;;;;;;38.92;23.83;;;;;;;30.96;46.67;101804.25;5043052;28;20024;-70
2023/09/10 07:19:36;;;;;;;43.30;24.70;;;;;;;31.44;45.52;101796.78;5035785;28;20072;-71
2023/09/10 07:22:02;;;;;;;38.42;23.48;;;;;;;31.53;45.41;101798.72;5050091;28;20627;-71
2023/09/10 07:24:27;;;;;;;41.47;24.92;;;;;;;31.00;46.55;101801.31;5031022;28;20028;-71
2023/09/10 07:26:53;;;;;;;40.05;24.33;;;;;;;31.83;45.08;101799.81;5030908;28;20104;-69
2023/09/10 07:29:18;;;;;;;37.70;22.60;;;;;;;32.53;43.41;101802.78;5030958;28;20543;-71
2023/09/10 07:31:44;;;;;;;33.95;21.80;;;;;;;33.94;40.64;101801.72;5045349;28;20392;-70
2023/09/10 07:34:09;;;;;;;35.20;21.70;;;;;;;33.73;40.96;101806.41;5047130;28;20476;-71
2023/09/10 07:36:35;;;;;;;29.77;20.15;;;;;;;35.89;37.00;101798.91;5068682;28;20476;-70
2023/09/10 07:39:00;;;;;;;35.45;20.10;;;;;;;35.90;36.77;101797.91;5036880;28;20108;-70
2023/09/10 07:41:26;;;;;;;30.58;18.13;;;;;;;37.32;35.08;101810.09;5051141;28;20089;-69
2023/09/10 07:43:51;;;;;;;27.67;18.92;;;;;;;38.25;33.96;101810.75;5036663;28;20136;-70
2023/09/10 07:46:16;;;;;;;29.40;19.45;;;;;;;37.46;34.46;101815.91;5049546;28;20031;-69
2023/09/10 07:48:42;;;;;;;27.38;17.95;;;;;;;38.90;32.24;101814.22;5036837;28;20043;-73
2023/09/10 07:51:07;;;;;;;30.17;16.27;;;;;;;38.92;32.66;101817.63;5053549;28;20522;-70
2023/09/10 07:53:33;;;;;;;27.35;18.55;;;;;;;39.23;31.90;101819.50;5057101;28;20031;-71
2023/09/10 07:55:58;;;;;;;26.02;16.73;;;;;;;40.07;30.47;101820.53;5035362;28;20097;-71
2023/09/10 07:58:24;;;;;;;28.13;17.73;;;;;;;39.51;31.09;101805.25;5051374;28;20131;-70
2023/09/10 08:00:53;;;;;;;28.98;17.58;;;;;;;39.15;31.53;101819.56;5067318;28;20123;-70
2023/09/10 08:03:19;;;;;;;26.63;17.30;;;;;;;39.05;31.76;101818.91;5085420;28;20086;-70
2023/09/10 08:05:44;;;;;;;28.50;18.00;;;;;;;38.84;32.26;101823.13;5074612;28;20032;-70
2023/09/10 08:08:10;;;;;;;27.77;17.35;;;;;;;38.26;34.16;101817.88;5074617;28;20118;-70
2023/09/10 08:10:36;;;;;;;26.30;17.02;;;;;;;37.97;33.59;101822.00;5071614;28;20024;-70
2023/09/10 08:13:03;;;;;;;25.30;17.40;;;;;;;38.69;33.00;101823.91;5062439;28;20046;-70
2023/09/10 08:15:30;;;;;;;24.45;16.85;;;;;;;38.56;33.15;101823.56;5072683;28;20099;-71
2023/09/10 08:17:58;;;;;;;30.25;18.00;;;;;;;37.61;34.30;101814.19;5054980;28;20086;-69
2023/09/10 08:20:24;;;;;;;24.63;17.25;;;;;;;37.12;34.82;101819.56;5082521;28;20023;-70
2023/09/10 08:22:49;;;;;;;31.00;18.50;;;;;;;37.15;35.57;101813.78;5075006;28;20058;-70
2023/09/10 08:25:15;;;;;;;22.20;16.50;;;;;;;37.30;35.01;101817.59;5074518;28;20032;-70
2023/09/10 08:27:41;;;;;;;26.67;17.75;;;;;;;35.93;36.73;101813.88;5074371;28;20027;-71
2023/09/10 08:30:09;;;;;;;25.60;16.65;;;;;;;36.37;37.04;101814.84;5075033;28;20050;-69
2023/09/10 08:32:37;;;;;;;29.13;18.08;;;;;;;37.06;35.61;101817.53;5054921;28;20377;-70
2023/09/10 08:35:04;;;;;;;27.75;17.48;;;;;;;36.58;36.74;101812.56;5053820;28;20028;-70
2023/09/10 08:37:30;;;;;;;25.92;18.02;;;;;;;37.05;36.09;101808.47;5072260;28;20025;-70
2023/09/10 08:39:56;;;;;;;27.55;17.33;;;;;;;37.56;35.07;101802.94;5073805;28;20032;-69
2023/09/10 08:42:55;;;;;;;26.95;17.95;;;;;;;37.56;35.05;101802.94;5091445;28;20524;-70
2023/09/10 08:45:22;;;;;;;28.20;17.13;;;;;;;37.66;35.42;101802.75;5073887;28;20020;-70
2023/09/10 08:47:48;;;;;;;27.17;18.02;;;;;;;37.81;35.07;101792.91;5090236;28;20042;-71
2023/09/10 08:50:14;;;;;;;26.33;17.98;;;;;;;36.53;37.33;101803.19;5072419;28;20120;-70
2023/09/10 08:52:43;;;;;;;24.45;17.08;;;;;;;36.93;36.70;101794.34;5074713;28;20487;-70
2023/09/10 08:55:11;;;;;;;31.73;19.10;;;;;;;37.31;36.31;101808.38;5092119;28;20031;-71
2023/09/10 08:57:37;;;;;;;27.35;17.00;;;;;;;36.78;37.08;101795.94;5071526;28;20046;-70
2023/09/10 09:00:10;;;;;;;30.30;16.95;;;;;;;37.59;36.03;101797.16;5072253;28;20496;-70
2023/09/10 09:02:37;;;;;;;28.63;17.48;;;;;;;38.18;35.21;101796.03;5073520;28;20032;-70
2023/09/10 09:05:04;;;;;;;28.00;17.13;;;;;;;37.07;36.85;101805.59;5073098;28;20483;-70
2023/09/10 09:07:34;;;;;;;25.58;16.85;;;;;;;37.51;36.90;101794.44;5066505;28;20028;-70
2023/09/10 09:10:02;;;;;;;25.90;16.65;;;;;;;37.76;36.30;101808.09;5072483;28;20028;-70
2023/09/10 09:12:30;;;;;;;23.75;15.90;;;;;;;37.46;36.54;101800.38;5073787;28;20464;-71
2023/09/10 09:14:57;;;;;;;24.65;16.15;;;;;;;37.47;36.42;101801.25;5073621;28;20354;-70
2023/09/10 09:17:22;;;;;;;22.58;16.20;;;;;;;37.26;36.46;101809.88;5061716;28;20033;-70
2023/09/10 09:19:49;;;;;;;24.20;15.77;;;;;;;37.34;36.83;101802.59;5061042;28;20429;-70
2023/09/10 09:22:19;;;;;;;25.73;15.63;;;;;;;36.56;37.93;101803.72;5072846;28;20060;-70
2023/09/10 09:24:46;;;;;;;22.73;15.40;;;;;;;37.59;36.39;101802.63;5074053;28;20020;-71
2023/09/10 09:27:13;;;;;;;24.90;15.55;;;;;;;37.71;35.87;101807.72;5059577;28;20048;-70
2023/09/10 09:29:39;;;;;;;26.85;15.55;;;;;;;37.46;36.60;101799.53;5070841;28;20032;-70
2023/09/10 09:32:04;;;;;;;20.23;14.30;;;;;;;37.60;36.25;101796.13;5053931;28;20021;-70
2023/09/10 09:34:32;;;;;;;22.02;13.60;;;;;;;37.63;36.54;101800.38;5052528;28;20202;-70
2023/09/10 09:36:57;;;;;;;21.25;13.57;;;;;;;38.02;35.77;101792.34;5052690;28;20017;-70
2023/09/10 09:39:23;;;;;;;19.05;12.98;;;;;;;38.10;35.76;101790.59;5075212;28;20376;-70
2023/09/10 09:41:54;;;;;;;23.02;14.38;;;;;;;37.68;36.24;101793.38;5073430;28;20411;-70
2023/09/10 09:44:19;;;;;;;21.00;12.87;;;;;;;36.84;37.00;101795.34;5057843;28;20438;-70
2023/09/10 09:46:46;;;;;;;20.88;12.93;;;;;;;38.40;34.91;101794.47;5053279;28;20283;-70
2023/09/10 09:49:12;;;;;;;20.73;13.35;;;;;;;38.96;34.37;101797.09;5071817;28;20033;-70
2023/09/10 09:51:40;;;;;;;20.52;12.30;;;;;;;39.07;34.11;101803.19;5081050;28;20499;-70
2023/09/10 09:54:07;;;;;;;19.58;11.75;;;;;;;38.96;34.21;101790.78;5075913;28;20040;-70
2023/09/10 09:56:33;;;;;;;23.40;11.90;;;;;;;38.94;34.45;101799.19;5052852;28;20136;-70
2023/09/10 09:58:59;;;;;;;18.15;11.77;;;;;;;38.52;34.39;101797.66;5053427;28;20488;-71
2023/09/10 10:01:25;;;;;;;20.13;12.75;;;;;;;38.52;34.27;101789.47;5078284;28;20028;-69
2023/09/10 10:03:52;;;;;;;20.17;12.25;;;;;;;39.44;33.23;101776.97;5073095;28;20028;-69
2023/09/10 10:06:18;;;;;;;15.52;11.23;;;;;;;38.81;34.26;101785.25;5072096;28;20440;-69
2023/09/10 10:08:51;;;;;;;21.00;12.93;;;;;;;38.81;34.63;101782.53;5069167;28;20119;-71
2023/09/10 10:11:32;;;;;;;19.58;11.93;;;;;;;38.09;35.51;101778.00;5052836;28;20439;-69
2023/09/10 10:13:59;;;;;;;20.45;11.63;;;;;;;37.75;36.27;101771.72;5052927;28;20369;-69
2023/09/10 10:16:29;;;;;;;19.05;11.18;;;;;;;38.38;35.10;101768.38;5057196;28;20024;-70
2023/09/10 10:18:55;;;;;;;16.70;10.18;;;;;;;38.14;35.29;101765.53;5056607;28;20036;-69
2023/09/10 10:21:24;;;;;;;16.13;9.23;;;;;;;39.03;34.48;101770.78;5052114;28;20070;-69
2023/09/10 10:23:56;;;;;;;13.55;9.18;;;;;;;39.15;34.23;101765.75;5080412;28;20478;-69
2023/09/10 10:26:23;;;;;;;20.50;10.63;;;;;;;39.34;33.75;101756.19;5070224;28;20031;-69
2023/09/10 10:28:49;;;;;;;19.42;8.88;;;;;;;39.50;33.23;101765.28;5056789;28;20135;-69
2023/09/10 10:31:17;;;;;;;10.98;7.53;;;;;;;39.28;32.69;101765.16;5058126;28;20528;-69
2023/09/10 10:34:13;;;;;;;11.45;8.27;;;;;;;38.44;34.86;101770.41;5051801;28;20043;-69
2023/09/10 10:36:50;;;;;;;16.52;8.45;;;;;;;38.69;33.99;101769.28;5052137;28;20024;-72
2023/09/10 10:39:21;;;;;;;11.32;8.10;;;;;;;39.45;33.35;101762.28;5051256;28;20017;-71
2023/09/10 10:41:52;;;;;;;12.48;7.07;;;;;;;39.30;32.67;101760.34;5069321;28;20034;-70
2023/09/10 10:44:37;;;;;;;12.55;7.60;;;;;;;38.06;34.56;101770.16;5060867;28;20039;-69
2023/09/10 10:47:12;;;;;;;11.85;6.13;;;;;;;38.86;32.58;101769.19;5052043;28;20063;-69
2023/09/10 10:49:55;;;;;;;8.23;5.18;;;;;;;38.61;33.06;101769.28;5052342;28;20476;-69
2023/09/10 10:52:31;;;;;;;8.02;5.05;;;;;;;39.24;32.48;101766.56;5059606;28;20085;-69
2023/09/10 10:54:57;;;;;;;7.50;4.60;;;;;;;39.10;31.58;101764.56;5054572;28;20467;-70
2023/09/10 10:57:24;;;;;;;8.75;4.80;;;;;;;39.09;32.08;101762.84;5070245;28;20499;-69
2023/09/10 10:59:50;;;;;;;10.48;5.10;;;;;;;39.83;30.86;101759.50;5072064;28;20051;-69
2023/09/10 11:02:22;;;;;;;11.90;5.30;;;;;;;39.10;31.92;101770.88;5089084;28;20035;-69
2023/09/10 11:04:58;;;;;;;;;;;;;;;39.24;31.29;101758.34;5070698;28;20028;-69
2023/09/10 11:07:24;;;;;;;7.03;5.63;;;;;;;38.91;31.11;101754.97;5069809;28;19933;-69